createdAt,value
2019-04-22T00:01:56.926Z,7.94
2019-04-22T00:04:41.030Z,7.84
2019-04-22T00:07:22.169Z,7.80
2019-04-22T00:09:58.341Z,7.80
2019-04-22T00:12:34.545Z,7.71
2019-04-22T00:14:57.097Z,7.47
2019-04-22T00:17:38.699Z,7.58
2019-04-22T00:20:11.720Z,7.56
2019-04-22T00:22:38.649Z,7.40
2019-04-22T00:25:14.503Z,7.68
2019-04-22T00:27:50.311Z,7.79
2019-04-22T00:30:18.102Z,7.89
2019-04-22T00:33:02.824Z,7.83
2019-04-22T00:35:38.321Z,7.63
2019-04-22T00:38:11.095Z,7.44
2019-04-22T00:40:44.607Z,7.24
2019-04-22T00:43:15.434Z,7.21
2019-04-22T00:45:53.724Z,7.11
2019-04-22T00:48:23.620Z,7.06
2019-04-22T00:51:02.591Z,7.00
2019-04-22T00:56:10.960Z,6.86
2019-04-22T01:01:20.401Z,7.21
2019-04-22T01:03:59.056Z,7.20
2019-04-22T01:06:21.529Z,7.33
2019-04-22T01:11:29.110Z,7.50
2019-04-22T01:13:55.897Z,7.48
2019-04-22T01:16:32.432Z,7.35
2019-04-22T01:19:03.155Z,7.06
2019-04-22T01:21:40.547Z,6.93
2019-04-22T01:24:03.550Z,6.78
2019-04-22T01:26:36.271Z,6.71
2019-04-22T01:29:00.866Z,6.66
2019-04-22T01:31:25.959Z,6.52
2019-04-22T01:34:08.228Z,6.47
2019-04-22T01:36:47.426Z,6.34
2019-04-22T01:39:23.340Z,6.20
2019-04-22T01:42:01.010Z,6.13
2019-04-22T01:47:04.899Z,6.07
2019-04-22T01:49:33.558Z,6.10
2019-04-22T01:52:05.109Z,6.33
2019-04-22T01:54:44.460Z,6.78
2019-04-22T01:57:16.051Z,6.75
2019-04-22T01:59:35.780Z,6.46
2019-04-22T02:02:16.219Z,6.35
2019-04-22T02:09:49.675Z,6.10
2019-04-22T02:12:25.769Z,6.19
2019-04-22T02:14:55.097Z,6.19
2019-04-22T02:17:33.278Z,6.06
2019-04-22T02:20:06.655Z,5.98
2019-04-22T02:22:50.835Z,5.95
2019-04-22T02:25:08.546Z,5.85
2019-04-22T02:27:43.410Z,5.81
2019-04-22T02:30:05.412Z,5.77
2019-04-22T02:35:24.006Z,6.52
2019-04-22T02:37:45.741Z,6.59
2019-04-22T02:40:41.333Z,6.63
2019-04-22T02:43:01.669Z,6.59
2019-04-22T02:45:42.843Z,6.58
2019-04-22T02:48:00.890Z,6.42
2019-04-22T02:50:30.842Z,6.29
2019-04-22T02:53:05.430Z,6.19
2019-04-22T02:55:40.832Z,6.26
2019-04-22T02:58:05.563Z,6.09
2019-04-22T03:00:54.197Z,6.37
2019-04-22T03:03:31.209Z,6.44
2019-04-22T03:05:56.671Z,6.50
2019-04-22T03:08:25.673Z,6.55
2019-04-22T03:13:45.123Z,6.55
2019-04-22T03:18:44.473Z,6.54
2019-04-22T03:21:02.338Z,6.61
2019-04-22T03:23:49.036Z,6.61
2019-04-22T03:26:18.836Z,6.71
2019-04-22T03:28:47.682Z,6.78
2019-04-22T03:31:35.874Z,6.88
2019-04-22T03:34:22.630Z,6.92
2019-04-22T03:36:58.326Z,6.96
2019-04-22T03:41:39.264Z,7.24
2019-04-22T03:44:19.038Z,7.36
2019-04-22T03:46:44.429Z,7.46
2019-04-22T03:51:54.485Z,7.83
2019-04-22T03:54:21.635Z,8.51
2019-04-22T04:01:53.660Z,9.42
2019-04-22T04:04:26.094Z,9.60
2019-04-22T04:07:08.662Z,9.82
2019-04-22T04:12:01.880Z,10.90
2019-04-22T04:14:38.121Z,11.11
2019-04-22T04:17:02.643Z,10.74
2019-04-22T04:22:09.782Z,12.57
2019-04-22T04:27:39.908Z,13.25
2019-04-22T04:30:05.626Z,13.30
2019-04-22T04:32:31.117Z,12.93
2019-04-22T04:35:07.286Z,13.23
2019-04-22T04:40:10.104Z,12.18
2019-04-22T04:47:42.996Z,12.27
2019-04-22T04:53:02.189Z,11.46
2019-04-22T04:55:20.974Z,12.44
2019-04-22T04:57:43.472Z,13.83
2019-04-22T05:02:46.756Z,12.80
2019-04-22T05:12:56.681Z,13.54
2019-04-22T05:17:57.810Z,13.06
2019-04-22T05:22:51.589Z,13.14
2019-04-22T05:25:22.208Z,13.03
2019-04-22T05:28:04.029Z,13.52
2019-04-22T05:30:39.522Z,14.62
2019-04-22T05:33:02.904Z,15.24
2019-04-22T05:35:32.234Z,15.51
2019-04-22T05:38:09.820Z,15.66
2019-04-22T05:40:35.891Z,15.64
2019-04-22T05:43:29.461Z,15.37
2019-04-22T05:45:44.092Z,15.52
2019-04-22T05:48:18.353Z,15.93
2019-04-22T05:50:53.961Z,16.29
2019-04-22T05:53:19.835Z,17.15
2019-04-22T05:55:55.572Z,18.25
2019-04-22T05:58:30.998Z,18.68
2019-04-22T06:03:46.563Z,19.69
2019-04-22T06:06:17.898Z,19.38
2019-04-22T06:08:51.030Z,20.04
2019-04-22T06:11:26.361Z,19.87
2019-04-22T06:13:51.716Z,21.03
2019-04-22T06:16:31.091Z,20.67
2019-04-22T06:19:03.125Z,20.56
2019-04-22T06:21:33.697Z,20.64
2019-04-22T06:24:14.043Z,21.61
2019-04-22T06:26:47.856Z,21.93
2019-04-22T06:29:16.361Z,21.43
2019-04-22T06:32:06.401Z,21.22
2019-04-22T06:34:17.287Z,21.17
2019-04-22T06:39:26.173Z,22.33
2019-04-22T06:44:25.964Z,22.14
2019-04-22T06:46:52.234Z,22.85
2019-04-22T06:49:31.815Z,23.36
2019-04-22T06:52:02.514Z,23.33
2019-04-22T06:54:32.901Z,23.10
2019-04-22T06:57:04.303Z,24.36
2019-04-22T06:59:36.241Z,23.11
2019-04-22T07:02:11.739Z,23.02
2019-04-22T07:04:41.890Z,23.30
2019-04-22T07:07:12.740Z,22.82
2019-04-22T07:09:48.766Z,23.75
2019-04-22T07:12:20.825Z,23.46
2019-04-22T07:14:48.861Z,24.06
2019-04-22T07:17:20.614Z,24.07
2019-04-22T07:19:47.197Z,24.22
2019-04-22T07:22:28.214Z,23.98
2019-04-22T07:24:58.978Z,26.32
2019-04-22T07:27:30.665Z,27.44
2019-04-22T07:30:09.427Z,23.58
2019-04-22T07:33:01.065Z,24.64
2019-04-22T07:35:09.820Z,24.97
2019-04-22T07:40:10.275Z,25.38
2019-04-22T07:42:41.813Z,24.10
2019-04-22T07:45:21.277Z,24.09
2019-04-22T07:47:52.097Z,24.38
2019-04-22T07:52:51.903Z,24.78
2019-04-22T07:55:19.249Z,25.04
2019-04-22T07:58:00.223Z,24.39
2019-04-22T08:03:07.981Z,23.65
2019-04-22T08:05:45.479Z,23.25
2019-04-22T08:08:24.860Z,22.95
2019-04-22T08:13:17.042Z,18.94
2019-04-22T08:15:55.449Z,19.37
2019-04-22T08:20:54.129Z,19.51
2019-04-22T08:23:39.910Z,19.05
2019-04-22T08:26:03.414Z,18.61
2019-04-22T08:28:40.058Z,18.55
2019-04-22T08:31:07.615Z,18.72
2019-04-22T08:33:39.896Z,18.53
2019-04-22T08:41:30.189Z,18.68
2019-04-22T08:46:28.046Z,17.98
2019-04-22T08:49:04.496Z,17.73
2019-04-22T08:56:45.968Z,17.31
2019-04-22T08:59:10.954Z,17.53
2019-04-22T09:01:48.957Z,17.70
2019-04-22T09:04:06.958Z,17.29
2019-04-22T09:07:05.813Z,17.41
2019-04-22T09:09:25.029Z,17.57
2019-04-22T09:11:54.633Z,17.64
2019-04-22T09:14:26.058Z,17.64
2019-04-22T09:17:01.749Z,17.78
2019-04-22T09:19:34.024Z,17.74
2019-04-22T09:22:00.424Z,18.17
2019-04-22T09:24:53.476Z,17.74
2019-04-22T09:27:05.846Z,17.08
2019-04-22T09:29:41.314Z,17.06
2019-04-22T09:32:11.572Z,17.46
2019-04-22T09:34:39.812Z,17.05
2019-04-22T09:39:51.734Z,17.61
2019-04-22T09:42:17.406Z,17.32
2019-04-22T09:45:06.081Z,17.44
2019-04-22T09:47:30.181Z,17.12
2019-04-22T09:52:29.162Z,17.22
2019-04-22T09:55:10.953Z,16.81
2019-04-22T09:57:31.185Z,16.80
2019-04-22T10:00:14.756Z,16.73
2019-04-22T10:03:16.749Z,16.87
2019-04-22T10:05:52.266Z,16.57
2019-04-22T10:08:27.107Z,16.55
2019-04-22T10:11:00.796Z,16.70
2019-04-22T10:13:32.144Z,16.53
2019-04-22T10:15:54.817Z,16.56
2019-04-22T10:18:33.782Z,16.69
2019-04-22T10:21:04.008Z,16.81
2019-04-22T10:23:42.475Z,16.96
2019-04-22T10:26:19.486Z,17.13
2019-04-22T10:28:48.370Z,16.82
2019-04-22T10:31:24.534Z,16.79
2019-04-22T10:33:45.210Z,16.90
2019-04-22T10:35:59.339Z,16.76
2019-04-22T10:38:30.587Z,16.54
2019-04-22T10:41:02.611Z,16.50
2019-04-22T10:43:34.942Z,16.47
2019-04-22T10:46:08.388Z,16.62
2019-04-22T10:48:41.971Z,16.55
2019-04-22T10:51:12.999Z,16.49
2019-04-22T10:53:43.840Z,16.70
2019-04-22T10:56:14.892Z,16.65
2019-04-22T10:58:46.683Z,16.74
2019-04-22T11:01:17.905Z,16.45
2019-04-22T11:03:51.094Z,16.62
2019-04-22T11:06:23.345Z,16.70
2019-04-22T11:09:01.767Z,16.64
2019-04-22T11:11:42.304Z,16.79
2019-04-22T11:14:10.748Z,16.87
2019-04-22T11:16:45.468Z,16.92
2019-04-22T11:19:17.351Z,16.74
2019-04-22T11:22:07.711Z,16.97
2019-04-22T11:24:56.327Z,16.93
2019-04-22T11:27:38.968Z,16.85
2019-04-22T11:30:11.168Z,16.50
2019-04-22T11:32:50.987Z,16.74
2019-04-22T11:35:23.638Z,16.88
2019-04-22T11:37:54.951Z,16.85
2019-04-22T11:40:37.664Z,17.02
2019-04-22T11:42:59.867Z,17.10
2019-04-22T11:45:31.499Z,17.18
2019-04-22T11:48:03.488Z,17.48
2019-04-22T11:50:37.674Z,17.45
2019-04-22T11:53:13.140Z,17.45
2019-04-22T11:55:46.734Z,17.41
2019-04-22T11:58:17.343Z,17.22
2019-04-22T12:00:49.399Z,16.89
2019-04-22T12:03:21.023Z,16.78
2019-04-22T12:05:52.242Z,16.84
2019-04-22T12:08:43.639Z,16.81
2019-04-22T12:11:26.267Z,16.86
2019-04-22T12:13:57.909Z,17.06
2019-04-22T12:16:29.645Z,17.18
2019-04-22T12:19:00.862Z,17.36
2019-04-22T12:21:35.045Z,17.50
2019-04-22T12:24:06.087Z,17.65
2019-04-22T12:26:37.927Z,17.65
2019-04-22T12:29:08.944Z,17.62
2019-04-22T12:31:39.938Z,17.91
2019-04-22T12:34:11.205Z,17.69
2019-04-22T12:36:46.744Z,17.60
2019-04-22T12:39:17.893Z,17.21
2019-04-22T12:41:49.851Z,16.93
2019-04-22T12:44:21.883Z,16.98
2019-04-22T12:46:54.314Z,17.09
2019-04-22T12:49:28.014Z,17.03
2019-04-22T12:52:05.133Z,17.13
2019-04-22T12:54:37.322Z,17.05
2019-04-22T12:57:08.097Z,17.22
2019-04-22T12:59:39.790Z,17.20
2019-04-22T13:02:13.380Z,17.46
2019-04-22T13:04:44.021Z,17.38
2019-04-22T13:07:15.733Z,17.77
2019-04-22T13:09:47.361Z,17.78
2019-04-22T13:12:22.578Z,17.66
2019-04-22T13:14:53.168Z,17.64
2019-04-22T13:17:24.989Z,17.54
2019-04-22T13:19:56.088Z,17.28
2019-04-22T13:22:27.083Z,17.31
2019-04-22T13:25:04.014Z,17.32
2019-04-22T13:27:35.283Z,17.38
2019-04-22T13:30:14.517Z,17.56
2019-04-22T13:32:47.127Z,17.77
2019-04-22T13:35:20.010Z,17.52
2019-04-22T13:37:51.009Z,17.54
2019-04-22T13:40:23.358Z,17.86
2019-04-22T13:42:55.603Z,17.89
2019-04-22T13:45:27.344Z,17.66
2019-04-22T13:48:16.759Z,17.46
2019-04-22T13:51:08.111Z,17.28
2019-04-22T13:53:44.728Z,17.11
2019-04-22T13:56:01.781Z,16.93
2019-04-22T13:58:18.409Z,16.89
2019-04-22T14:00:40.835Z,16.87
2019-04-22T14:03:30.762Z,17.04
2019-04-22T14:06:04.755Z,17.22
2019-04-22T14:08:40.862Z,17.33
2019-04-22T14:11:21.613Z,17.28
2019-04-22T14:13:43.908Z,17.47
2019-04-22T14:16:15.498Z,17.46
2019-04-22T14:18:46.161Z,17.56
2019-04-22T14:21:18.765Z,17.60
2019-04-22T14:23:50.800Z,17.62
2019-04-22T14:26:23.046Z,17.52
2019-04-22T14:28:55.697Z,17.43
2019-04-22T14:31:28.691Z,17.46
2019-04-22T14:34:05.194Z,17.37
2019-04-22T14:36:35.308Z,17.23
2019-04-22T14:39:08.115Z,17.19
2019-04-22T14:41:55.455Z,17.08
2019-04-22T14:47:15.910Z,16.93
2019-04-22T14:49:44.847Z,16.84
2019-04-22T14:52:11.517Z,16.72
2019-04-22T14:54:34.790Z,16.73
2019-04-22T14:56:54.238Z,16.78
2019-04-22T14:59:25.145Z,16.76
2019-04-22T15:01:58.062Z,16.78
2019-04-22T15:04:31.010Z,16.82
2019-04-22T15:07:03.082Z,16.76
2019-04-22T15:09:39.883Z,16.74
2019-04-22T15:12:38.173Z,16.51
2019-04-22T15:15:07.222Z,16.73
2019-04-22T15:17:44.865Z,16.80
2019-04-22T15:20:31.794Z,16.79
2019-04-22T15:23:04.870Z,16.69
2019-04-22T15:25:40.787Z,16.82
2019-04-22T15:28:13.452Z,16.83
2019-04-22T15:30:47.823Z,16.75
2019-04-22T15:33:23.672Z,16.79
2019-04-22T15:35:58.968Z,16.82
2019-04-22T15:38:38.351Z,16.82
2019-04-22T15:41:10.348Z,16.82
2019-04-22T15:43:41.619Z,16.87
2019-04-22T15:46:12.141Z,16.88
2019-04-22T15:48:46.212Z,16.89
2019-04-22T15:51:20.531Z,16.88
2019-04-22T15:53:51.927Z,16.95
2019-04-22T15:56:23.738Z,16.96
2019-04-22T15:58:59.712Z,16.93
2019-04-22T16:01:40.629Z,16.89
2019-04-22T16:04:12.768Z,16.87
2019-04-22T16:06:45.089Z,16.84
2019-04-22T16:09:22.764Z,16.78
2019-04-22T16:12:09.981Z,16.78
2019-04-22T16:14:41.926Z,16.76
2019-04-22T16:17:12.748Z,16.64
2019-04-22T16:19:46.690Z,16.58
2019-04-22T16:22:28.907Z,16.54
2019-04-22T16:25:31.336Z,16.50
2019-04-22T16:28:11.136Z,16.42
2019-04-22T16:30:43.887Z,16.34
2019-04-22T16:33:25.685Z,16.24
2019-04-22T16:35:58.757Z,16.20
2019-04-22T16:38:33.426Z,16.14
2019-04-22T16:41:10.770Z,16.09
2019-04-22T16:43:51.125Z,16.06
2019-04-22T16:46:31.873Z,15.96
2019-04-22T16:49:05.874Z,15.85
2019-04-22T16:51:42.277Z,15.86
2019-04-22T16:54:20.225Z,15.76
2019-04-22T16:56:57.596Z,15.56
2019-04-22T16:59:32.766Z,15.59
2019-04-22T17:02:30.722Z,15.60
2019-04-22T17:05:09.390Z,15.57
2019-04-22T17:07:49.948Z,15.43
2019-04-22T17:10:21.850Z,15.32
2019-04-22T17:13:06.139Z,15.27
2019-04-22T17:15:35.298Z,15.25
2019-04-22T17:18:11.276Z,14.82
2019-04-22T17:20:42.940Z,14.69
2019-04-22T17:23:20.002Z,14.75
2019-04-22T17:25:58.595Z,14.41
2019-04-22T17:28:33.335Z,14.54
2019-04-22T17:31:09.150Z,14.31
2019-04-22T17:33:41.224Z,14.28
2019-04-22T17:36:18.299Z,14.08
2019-04-22T17:39:02.727Z,14.08
2019-04-22T17:41:44.920Z,14.05
2019-04-22T17:44:31.125Z,13.88
2019-04-22T17:46:50.917Z,13.73
2019-04-22T17:49:48.620Z,13.63
2019-04-22T17:52:21.085Z,13.49
2019-04-22T17:54:51.460Z,13.34
2019-04-22T17:57:32.545Z,13.22
2019-04-22T18:00:11.202Z,13.12
2019-04-22T18:02:45.831Z,13.05
2019-04-22T18:05:06.134Z,12.94
2019-04-22T18:08:06.631Z,12.90
2019-04-22T18:13:14.088Z,12.77
2019-04-22T18:15:37.357Z,12.66
2019-04-22T18:18:12.395Z,12.61
2019-04-22T18:20:39.356Z,12.57
2019-04-22T18:23:09.942Z,12.57
2019-04-22T18:25:53.505Z,12.55
2019-04-22T18:28:31.673Z,12.46
2019-04-22T18:30:58.495Z,12.53
2019-04-22T18:33:31.961Z,12.46
2019-04-22T18:36:02.662Z,12.35
2019-04-22T18:38:46.370Z,12.38
2019-04-22T18:41:04.812Z,12.43
2019-04-22T18:43:47.906Z,12.31
2019-04-22T18:46:15.655Z,12.27
2019-04-22T18:48:46.136Z,12.30
2019-04-22T18:51:29.440Z,12.22
2019-04-22T18:54:01.988Z,12.33
2019-04-22T18:56:45.213Z,12.14
2019-04-22T18:59:06.880Z,12.09
2019-04-22T19:01:29.992Z,12.10
2019-04-22T19:04:11.387Z,12.04
2019-04-22T19:06:57.022Z,12.09
2019-04-22T19:09:38.269Z,12.05
2019-04-22T19:12:15.216Z,11.84
2019-04-22T19:14:43.070Z,11.82
2019-04-22T19:17:19.046Z,11.89
2019-04-22T19:19:43.769Z,11.74
2019-04-22T19:22:09.700Z,11.81
2019-04-22T19:24:40.067Z,11.74
2019-04-22T19:27:15.569Z,11.75
2019-04-22T19:29:55.837Z,11.73
2019-04-22T19:32:19.443Z,11.69
2019-04-22T19:34:54.163Z,11.61
2019-04-22T19:37:24.992Z,11.47
2019-04-22T19:40:03.428Z,11.43
2019-04-22T19:42:40.759Z,11.43
2019-04-22T19:45:01.074Z,11.46
2019-04-22T19:47:38.713Z,11.43
2019-04-22T19:50:14.540Z,11.33
2019-04-22T19:52:41.399Z,11.33
2019-04-22T19:55:13.768Z,11.32
2019-04-22T19:57:43.421Z,11.21
2019-04-22T20:00:14.430Z,11.34
2019-04-22T20:02:51.318Z,11.21
2019-04-22T20:08:07.267Z,11.04
2019-04-22T20:10:38.367Z,11.09
2019-04-22T20:13:10.095Z,11.07
2019-04-22T20:15:33.494Z,11.01
2019-04-22T20:18:30.972Z,10.90
2019-04-22T20:20:49.059Z,10.88
2019-04-22T20:23:10.474Z,10.83
2019-04-22T20:25:44.513Z,10.84
2019-04-22T20:28:27.342Z,10.84
2019-04-22T20:30:55.412Z,10.82
2019-04-22T20:33:30.506Z,10.77
2019-04-22T20:36:03.403Z,10.90
2019-04-22T20:38:31.093Z,10.73
2019-04-22T20:41:05.598Z,10.74
2019-04-22T20:43:44.836Z,10.65
2019-04-22T20:46:11.382Z,10.56
2019-04-22T20:48:43.885Z,10.45
2019-04-22T20:51:14.119Z,10.43
2019-04-22T20:53:49.182Z,10.41
2019-04-22T20:56:16.037Z,10.48
2019-04-22T20:58:53.069Z,10.38
2019-04-22T21:01:21.070Z,10.46
2019-04-22T21:03:43.766Z,10.38
2019-04-22T21:06:27.527Z,10.28
2019-04-22T21:09:01.059Z,10.27
2019-04-22T21:11:30.255Z,10.10
2019-04-22T21:14:04.400Z,10.00
2019-04-22T21:16:40.141Z,9.92
2019-04-22T21:19:11.750Z,9.94
2019-04-22T21:21:46.082Z,9.88
2019-04-22T21:24:13.998Z,9.90
2019-04-22T21:26:44.286Z,9.90
2019-04-22T21:29:12.763Z,9.90
2019-04-22T21:31:51.291Z,9.83
2019-04-22T21:34:20.628Z,9.81
2019-04-22T21:37:03.966Z,9.81
2019-04-22T21:39:23.087Z,9.75
2019-04-22T21:41:56.681Z,9.81
2019-04-22T21:44:32.416Z,9.82
2019-04-22T21:47:12.930Z,9.73
2019-04-22T21:49:39.031Z,9.68
2019-04-22T21:52:08.018Z,9.64
2019-04-22T21:54:50.170Z,9.64
2019-04-22T21:57:50.197Z,9.61
2019-04-22T22:00:04.458Z,9.65
2019-04-22T22:02:39.730Z,9.62
2019-04-22T22:05:01.882Z,9.57
2019-04-22T22:07:25.124Z,9.46
2019-04-22T22:10:09.834Z,9.48
2019-04-22T22:12:42.671Z,9.45
2019-04-22T22:15:12.907Z,9.41
2019-04-22T22:17:42.220Z,9.37
2019-04-22T22:20:14.774Z,9.35
2019-04-22T22:23:01.986Z,9.32
2019-04-22T22:25:24.029Z,9.29
2019-04-22T22:27:53.445Z,9.27
2019-04-22T22:33:05.458Z,9.27
2019-04-22T22:35:36.057Z,9.23
2019-04-22T22:38:09.114Z,9.16
2019-04-22T22:40:24.249Z,9.11
2019-04-22T22:42:55.536Z,9.05
2019-04-22T22:45:36.117Z,9.10
2019-04-22T22:48:26.706Z,9.12
2019-04-22T22:50:49.225Z,9.09
2019-04-22T22:55:54.699Z,9.07
2019-04-22T22:58:28.733Z,9.00
2019-04-22T23:00:56.173Z,8.97
2019-04-22T23:03:48.380Z,8.96
2019-04-22T23:06:03.502Z,8.92
2019-04-22T23:08:38.508Z,8.86
2019-04-22T23:11:41.850Z,8.84
2019-04-22T23:13:43.161Z,8.83
2019-04-22T23:16:04.309Z,8.84
2019-04-22T23:18:23.977Z,8.76
2019-04-22T23:20:57.226Z,8.74
2019-04-22T23:23:49.380Z,8.71
2019-04-22T23:26:29.913Z,8.77
2019-04-22T23:28:57.343Z,8.77
2019-04-22T23:31:31.708Z,8.78
2019-04-22T23:34:18.653Z,8.75
2019-04-22T23:37:06.228Z,8.69
2019-04-22T23:39:41.645Z,8.69
2019-04-22T23:42:13.445Z,8.84
2019-04-22T23:44:42.248Z,8.67
2019-04-22T23:47:11.100Z,8.87
2019-04-22T23:49:52.556Z,9.00
2019-04-22T23:52:42.269Z,8.90
2019-04-22T23:54:58.776Z,8.83
2019-04-22T23:57:30.285Z,8.73
